ソルトレイクシティ の空港の天気 - METARとTAF

ソルト・レーク・シティ国際空港 ( KSLC / SLC ) - アメリカ ユタ州ソルトレイクシティ
飛行場実況気象(Metar)
観測時間10/22 05:54 MDT (10/22 11:54 UTC)
風向・風速北西 5m/s
視程10km以上
天気現象
全天の8割程度の雲 雲底高度 1520m
全天の8割程度の雲 雲底高度 6100m
気温8.3℃
湿度52%
気圧1011.4hPa
METARKSLC 221154Z COR 32009KT 10SM BKN050 BKN200 08/M01 A2996 RMK AO2 SLP114 T00831011 10128 20083 51021 $
過去の天気等 Google飛行場航空写真 Wunderground天気予報

過去48時間のMETAR

飛行場予報(TAF)
発表時間: 10/22 05:20 MDT (10/22 11:20 UTC)
予報対象時間: 22日6時 MDT ~ 23日12時 MDT
風向・風速北西 4m/s
視程10km以上
全天の4割程度の雲 雲底高度 6100m
23日0時 MDT から
風向・風速南南東 3m/s
視程10km以上
少しの雲 雲底高度 6100m
KSLC 221120Z 2212/2318 32008KT P6SM SCT200
FM230600 15005KT P6SM FEW200